sensor_id;sensor_type;location;lat;lon;timestamp;temperature;humidity
16974;DHT22;8603;46.944;7.412;2023-09-07T00:01:30;18.90;99.90
16974;DHT22;8603;46.944;7.412;2023-09-07T00:03:59;18.90;99.90
16974;DHT22;8603;46.944;7.412;2023-09-07T00:06:25;18.80;99.90
16974;DHT22;8603;46.944;7.412;2023-09-07T00:08:59;18.80;99.90
16974;DHT22;8603;46.944;7.412;2023-09-07T00:14:01;18.70;99.90
16974;DHT22;8603;46.944;7.412;2023-09-07T00:16:26;18.60;99.90
16974;DHT22;8603;46.944;7.412;2023-09-07T00:18:52;18.60;99.90
16974;DHT22;8603;46.944;7.412;2023-09-07T00:21:17;18.50;99.90
16974;DHT22;8603;46.944;7.412;2023-09-07T00:23:43;18.40;99.90
16974;DHT22;8603;46.944;7.412;2023-09-07T00:26:08;18.40;99.90
16974;DHT22;8603;46.944;7.412;2023-09-07T00:28:34;18.40;99.90
16974;DHT22;8603;46.944;7.412;2023-09-07T00:31:00;18.30;99.90
16974;DHT22;8603;46.944;7.412;2023-09-07T00:33:25;18.30;99.90
16974;DHT22;8603;46.944;7.412;2023-09-07T00:35:51;18.30;99.90
16974;DHT22;8603;46.944;7.412;2023-09-07T00:38:17;18.20;99.90
16974;DHT22;8603;46.944;7.412;2023-09-07T00:40:43;18.10;99.90
16974;DHT22;8603;46.944;7.412;2023-09-07T00:43:10;18.10;99.90
16974;DHT22;8603;46.944;7.412;2023-09-07T00:45:39;18.00;99.90
16974;DHT22;8603;46.944;7.412;2023-09-07T00:48:05;18.00;99.90
16974;DHT22;8603;46.944;7.412;2023-09-07T00:50:31;18.00;99.90
16974;DHT22;8603;46.944;7.412;2023-09-07T00:52:58;17.90;99.90
16974;DHT22;8603;46.944;7.412;2023-09-07T00:55:25;17.90;99.90
16974;DHT22;8603;46.944;7.412;2023-09-07T00:57:58;17.90;99.90
16974;DHT22;8603;46.944;7.412;2023-09-07T01:00:30;17.80;99.90
16974;DHT22;8603;46.944;7.412;2023-09-07T01:02:56;17.80;99.90
16974;DHT22;8603;46.944;7.412;2023-09-07T01:05:27;17.70;99.90
16974;DHT22;8603;46.944;7.412;2023-09-07T01:08:10;17.70;99.90
16974;DHT22;8603;46.944;7.412;2023-09-07T01:10:37;17.70;99.90
16974;DHT22;8603;46.944;7.412;2023-09-07T01:13:02;17.70;99.90
16974;DHT22;8603;46.944;7.412;2023-09-07T01:15:28;17.60;99.90
16974;DHT22;8603;46.944;7.412;2023-09-07T01:17:59;17.60;99.90
16974;DHT22;8603;46.944;7.412;2023-09-07T01:20:26;17.60;99.90
16974;DHT22;8603;46.944;7.412;2023-09-07T01:22:51;17.50;99.90
16974;DHT22;8603;46.944;7.412;2023-09-07T01:25:18;17.50;99.90
16974;DHT22;8603;46.944;7.412;2023-09-07T01:27:44;17.50;99.90
16974;DHT22;8603;46.944;7.412;2023-09-07T01:30:10;17.50;99.90
16974;DHT22;8603;46.944;7.412;2023-09-07T01:32:36;17.40;99.90
16974;DHT22;8603;46.944;7.412;2023-09-07T01:35:04;17.40;99.90
16974;DHT22;8603;46.944;7.412;2023-09-07T01:37:32;17.40;99.90
16974;DHT22;8603;46.944;7.412;2023-09-07T01:39:58;17.40;99.90
16974;DHT22;8603;46.944;7.412;2023-09-07T01:42:24;17.40;99.90
16974;DHT22;8603;46.944;7.412;2023-09-07T01:44:50;17.40;99.90
16974;DHT22;8603;46.944;7.412;2023-09-07T01:47:15;17.40;99.90
16974;DHT22;8603;46.944;7.412;2023-09-07T01:49:41;17.40;99.90
16974;DHT22;8603;46.944;7.412;2023-09-07T01:52:07;17.40;99.90
16974;DHT22;8603;46.944;7.412;2023-09-07T01:54:33;17.40;99.90
16974;DHT22;8603;46.944;7.412;2023-09-07T01:56:58;17.30;99.90
16974;DHT22;8603;46.944;7.412;2023-09-07T01:59:24;17.30;99.90
16974;DHT22;8603;46.944;7.412;2023-09-07T02:01:49;17.30;99.90
16974;DHT22;8603;46.944;7.412;2023-09-07T02:04:15;17.20;99.90
16974;DHT22;8603;46.944;7.412;2023-09-07T02:06:41;17.20;99.90
16974;DHT22;8603;46.944;7.412;2023-09-07T02:09:06;17.20;99.90
16974;DHT22;8603;46.944;7.412;2023-09-07T02:11:33;17.10;99.90
16974;DHT22;8603;46.944;7.412;2023-09-07T02:13:59;17.10;99.90
16974;DHT22;8603;46.944;7.412;2023-09-07T02:16:24;17.10;99.90
16974;DHT22;8603;46.944;7.412;2023-09-07T02:18:50;17.10;99.90
16974;DHT22;8603;46.944;7.412;2023-09-07T02:21:16;17.10;99.90
16974;DHT22;8603;46.944;7.412;2023-09-07T02:23:42;17.10;99.90
16974;DHT22;8603;46.944;7.412;2023-09-07T02:26:07;17.10;99.90
16974;DHT22;8603;46.944;7.412;2023-09-07T02:28:33;17.10;99.90
16974;DHT22;8603;46.944;7.412;2023-09-07T02:31:02;17.00;99.90
16974;DHT22;8603;46.944;7.412;2023-09-07T02:33:28;17.00;99.90
16974;DHT22;8603;46.944;7.412;2023-09-07T02:35:54;17.00;99.90
16974;DHT22;8603;46.944;7.412;2023-09-07T02:38:19;17.00;99.90
16974;DHT22;8603;46.944;7.412;2023-09-07T02:40:45;16.90;99.90
16974;DHT22;8603;46.944;7.412;2023-09-07T02:43:11;16.90;99.90
16974;DHT22;8603;46.944;7.412;2023-09-07T02:45:38;16.90;99.90
16974;DHT22;8603;46.944;7.412;2023-09-07T02:48:04;16.90;99.90
16974;DHT22;8603;46.944;7.412;2023-09-07T02:50:32;16.80;99.90
16974;DHT22;8603;46.944;7.412;2023-09-07T02:52:58;16.80;99.90
16974;DHT22;8603;46.944;7.412;2023-09-07T02:55:25;16.80;99.90
16974;DHT22;8603;46.944;7.412;2023-09-07T02:57:51;16.80;99.90
16974;DHT22;8603;46.944;7.412;2023-09-07T03:00:17;16.80;99.90
16974;DHT22;8603;46.944;7.412;2023-09-07T03:02:43;16.70;99.90
16974;DHT22;8603;46.944;7.412;2023-09-07T03:05:09;16.70;99.90
16974;DHT22;8603;46.944;7.412;2023-09-07T03:07:35;16.70;99.90
16974;DHT22;8603;46.944;7.412;2023-09-07T03:10:01;16.70;99.90
16974;DHT22;8603;46.944;7.412;2023-09-07T03:12:27;16.70;99.90
16974;DHT22;8603;46.944;7.412;2023-09-07T03:14:53;16.70;99.90
16974;DHT22;8603;46.944;7.412;2023-09-07T03:17:19;16.70;99.90
16974;DHT22;8603;46.944;7.412;2023-09-07T03:19:46;16.70;99.90
16974;DHT22;8603;46.944;7.412;2023-09-07T03:22:12;16.60;99.90
16974;DHT22;8603;46.944;7.412;2023-09-07T03:24:38;16.60;99.90
16974;DHT22;8603;46.944;7.412;2023-09-07T03:27:04;16.60;99.90
16974;DHT22;8603;46.944;7.412;2023-09-07T03:29:31;16.60;99.90
16974;DHT22;8603;46.944;7.412;2023-09-07T03:31:59;16.60;99.90
16974;DHT22;8603;46.944;7.412;2023-09-07T03:34:24;16.60;99.90
16974;DHT22;8603;46.944;7.412;2023-09-07T03:36:50;16.60;99.90
16974;DHT22;8603;46.944;7.412;2023-09-07T03:39:15;16.60;99.90
16974;DHT22;8603;46.944;7.412;2023-09-07T03:41:43;16.60;99.90
16974;DHT22;8603;46.944;7.412;2023-09-07T03:44:08;16.60;99.90
16974;DHT22;8603;46.944;7.412;2023-09-07T03:46:34;16.60;99.90
16974;DHT22;8603;46.944;7.412;2023-09-07T03:48:59;16.60;99.90
16974;DHT22;8603;46.944;7.412;2023-09-07T03:51:25;16.60;99.90
16974;DHT22;8603;46.944;7.412;2023-09-07T03:53:50;16.60;99.90
16974;DHT22;8603;46.944;7.412;2023-09-07T03:56:16;16.60;99.90
16974;DHT22;8603;46.944;7.412;2023-09-07T03:58:41;16.50;99.90
16974;DHT22;8603;46.944;7.412;2023-09-07T04:01:07;16.50;99.90
16974;DHT22;8603;46.944;7.412;2023-09-07T04:03:33;16.50;99.90
16974;DHT22;8603;46.944;7.412;2023-09-07T04:05:58;16.50;99.90
16974;DHT22;8603;46.944;7.412;2023-09-07T04:08:24;16.50;99.90
16974;DHT22;8603;46.944;7.412;2023-09-07T04:10:49;16.40;99.90
16974;DHT22;8603;46.944;7.412;2023-09-07T04:13:15;16.40;99.90
16974;DHT22;8603;46.944;7.412;2023-09-07T04:15:45;16.40;99.90
16974;DHT22;8603;46.944;7.412;2023-09-07T04:18:11;16.40;99.90
16974;DHT22;8603;46.944;7.412;2023-09-07T04:20:38;16.40;99.90
16974;DHT22;8603;46.944;7.412;2023-09-07T04:23:04;16.40;99.90
16974;DHT22;8603;46.944;7.412;2023-09-07T04:25:30;16.40;99.90
16974;DHT22;8603;46.944;7.412;2023-09-07T04:27:55;16.40;99.90
16974;DHT22;8603;46.944;7.412;2023-09-07T04:30:22;16.40;99.90
16974;DHT22;8603;46.944;7.412;2023-09-07T04:32:48;16.40;99.90
16974;DHT22;8603;46.944;7.412;2023-09-07T04:35:13;16.40;99.90
16974;DHT22;8603;46.944;7.412;2023-09-07T04:37:42;16.40;99.90
16974;DHT22;8603;46.944;7.412;2023-09-07T04:40:09;16.30;99.90
16974;DHT22;8603;46.944;7.412;2023-09-07T04:42:35;16.30;99.90
16974;DHT22;8603;46.944;7.412;2023-09-07T04:45:00;16.30;99.90
16974;DHT22;8603;46.944;7.412;2023-09-07T04:47:26;16.30;99.90
16974;DHT22;8603;46.944;7.412;2023-09-07T04:49:52;16.30;99.90
16974;DHT22;8603;46.944;7.412;2023-09-07T04:52:17;16.30;99.90
16974;DHT22;8603;46.944;7.412;2023-09-07T04:54:43;16.30;99.90
16974;DHT22;8603;46.944;7.412;2023-09-07T04:57:09;16.30;99.90
16974;DHT22;8603;46.944;7.412;2023-09-07T04:59:34;16.30;99.90
16974;DHT22;8603;46.944;7.412;2023-09-07T05:02:00;16.20;99.90
16974;DHT22;8603;46.944;7.412;2023-09-07T05:04:29;16.30;99.90
16974;DHT22;8603;46.944;7.412;2023-09-07T05:06:56;16.30;99.90
16974;DHT22;8603;46.944;7.412;2023-09-07T05:09:22;16.20;99.90
16974;DHT22;8603;46.944;7.412;2023-09-07T05:11:51;16.30;99.90
16974;DHT22;8603;46.944;7.412;2023-09-07T05:14:18;16.20;99.90
16974;DHT22;8603;46.944;7.412;2023-09-07T05:16:46;16.20;99.90
16974;DHT22;8603;46.944;7.412;2023-09-07T05:19:13;16.20;99.90
16974;DHT22;8603;46.944;7.412;2023-09-07T05:21:38;16.30;99.90
16974;DHT22;8603;46.944;7.412;2023-09-07T05:24:04;16.40;99.90
16974;DHT22;8603;46.944;7.412;2023-09-07T05:26:30;16.50;99.90
16974;DHT22;8603;46.944;7.412;2023-09-07T05:28:55;16.50;99.90
16974;DHT22;8603;46.944;7.412;2023-09-07T05:31:21;16.50;99.90
16974;DHT22;8603;46.944;7.412;2023-09-07T05:33:46;16.60;99.90
16974;DHT22;8603;46.944;7.412;2023-09-07T05:36:12;16.50;99.90
16974;DHT22;8603;46.944;7.412;2023-09-07T05:38:37;16.60;99.90
16974;DHT22;8603;46.944;7.412;2023-09-07T05:41:03;16.60;99.90
16974;DHT22;8603;46.944;7.412;2023-09-07T05:43:29;16.70;99.90
16974;DHT22;8603;46.944;7.412;2023-09-07T05:45:54;16.80;99.90
16974;DHT22;8603;46.944;7.412;2023-09-07T05:48:20;16.80;99.90
16974;DHT22;8603;46.944;7.412;2023-09-07T05:50:45;16.80;99.90
16974;DHT22;8603;46.944;7.412;2023-09-07T05:53:11;16.90;99.90
16974;DHT22;8603;46.944;7.412;2023-09-07T05:55:37;17.00;99.90
16974;DHT22;8603;46.944;7.412;2023-09-07T05:58:07;17.10;99.90
16974;DHT22;8603;46.944;7.412;2023-09-07T06:00:34;17.20;99.90
16974;DHT22;8603;46.944;7.412;2023-09-07T06:03:01;17.30;99.90
16974;DHT22;8603;46.944;7.412;2023-09-07T06:05:27;17.40;99.90
16974;DHT22;8603;46.944;7.412;2023-09-07T06:07:52;17.60;99.90
16974;DHT22;8603;46.944;7.412;2023-09-07T06:10:18;17.60;99.90
16974;DHT22;8603;46.944;7.412;2023-09-07T06:12:45;17.80;99.90
16974;DHT22;8603;46.944;7.412;2023-09-07T06:15:18;18.30;99.90
16974;DHT22;8603;46.944;7.412;2023-09-07T06:17:47;18.80;99.90
16974;DHT22;8603;46.944;7.412;2023-09-07T06:20:12;19.20;99.90
16974;DHT22;8603;46.944;7.412;2023-09-07T06:22:38;19.30;99.90
16974;DHT22;8603;46.944;7.412;2023-09-07T06:25:04;19.40;99.90
16974;DHT22;8603;46.944;7.412;2023-09-07T06:27:30;19.50;99.90
16974;DHT22;8603;46.944;7.412;2023-09-07T06:29:55;19.60;99.90
16974;DHT22;8603;46.944;7.412;2023-09-07T06:32:27;19.60;99.90
16974;DHT22;8603;46.944;7.412;2023-09-07T06:35:27;19.70;99.90
16974;DHT22;8603;46.944;7.412;2023-09-07T06:41:28;20.10;99.90
16974;DHT22;8603;46.944;7.412;2023-09-07T06:43:55;20.70;99.90
16974;DHT22;8603;46.944;7.412;2023-09-07T06:46:20;21.50;99.90
16974;DHT22;8603;46.944;7.412;2023-09-07T06:48:46;22.30;99.90
16974;DHT22;8603;46.944;7.412;2023-09-07T06:51:21;22.90;99.90
16974;DHT22;8603;46.944;7.412;2023-09-07T06:53:46;23.50;99.90
16974;DHT22;8603;46.944;7.412;2023-09-07T06:56:12;23.70;99.90
16974;DHT22;8603;46.944;7.412;2023-09-07T06:58:38;23.90;99.90
16974;DHT22;8603;46.944;7.412;2023-09-07T07:01:06;24.50;99.90
16974;DHT22;8603;46.944;7.412;2023-09-07T07:03:33;25.50;99.90
16974;DHT22;8603;46.944;7.412;2023-09-07T07:06:00;26.60;99.90
16974;DHT22;8603;46.944;7.412;2023-09-07T07:08:26;27.60;99.90
16974;DHT22;8603;46.944;7.412;2023-09-07T07:10:51;28.60;99.90
16974;DHT22;8603;46.944;7.412;2023-09-07T07:13:18;29.50;99.90
16974;DHT22;8603;46.944;7.412;2023-09-07T07:15:44;30.10;99.90
16974;DHT22;8603;46.944;7.412;2023-09-07T07:18:12;30.70;99.90
16974;DHT22;8603;46.944;7.412;2023-09-07T07:20:39;31.30;99.90
16974;DHT22;8603;46.944;7.412;2023-09-07T07:23:05;31.50;99.90
16974;DHT22;8603;46.944;7.412;2023-09-07T07:25:45;31.70;99.90
16974;DHT22;8603;46.944;7.412;2023-09-07T07:28:11;31.90;99.90
16974;DHT22;8603;46.944;7.412;2023-09-07T07:30:38;32.20;99.90
16974;DHT22;8603;46.944;7.412;2023-09-07T07:33:04;32.50;99.90
16974;DHT22;8603;46.944;7.412;2023-09-07T07:35:33;32.70;99.90
16974;DHT22;8603;46.944;7.412;2023-09-07T07:38:03;32.70;99.90
16974;DHT22;8603;46.944;7.412;2023-09-07T07:40:30;32.70;99.90
16974;DHT22;8603;46.944;7.412;2023-09-07T07:42:55;32.60;99.90
16974;DHT22;8603;46.944;7.412;2023-09-07T07:45:21;32.80;99.90
16974;DHT22;8603;46.944;7.412;2023-09-07T07:47:49;32.60;99.90
16974;DHT22;8603;46.944;7.412;2023-09-07T07:50:18;32.50;99.90
16974;DHT22;8603;46.944;7.412;2023-09-07T07:52:44;32.30;99.90
16974;DHT22;8603;46.944;7.412;2023-09-07T07:55:11;32.20;99.90
16974;DHT22;8603;46.944;7.412;2023-09-07T07:57:36;32.40;99.90
16974;DHT22;8603;46.944;7.412;2023-09-07T08:00:03;32.60;99.90
16974;DHT22;8603;46.944;7.412;2023-09-07T08:02:32;33.00;99.90
16974;DHT22;8603;46.944;7.412;2023-09-07T08:04:58;33.20;99.90
16974;DHT22;8603;46.944;7.412;2023-09-07T08:07:24;33.30;99.90
16974;DHT22;8603;46.944;7.412;2023-09-07T08:09:50;32.90;99.90
16974;DHT22;8603;46.944;7.412;2023-09-07T08:12:35;32.90;99.90
16974;DHT22;8603;46.944;7.412;2023-09-07T08:15:11;32.90;99.90
16974;DHT22;8603;46.944;7.412;2023-09-07T08:17:37;33.10;99.90
16974;DHT22;8603;46.944;7.412;2023-09-07T08:20:03;33.20;99.90
16974;DHT22;8603;46.944;7.412;2023-09-07T08:22:28;33.30;99.90
16974;DHT22;8603;46.944;7.412;2023-09-07T08:24:54;33.30;99.90
16974;DHT22;8603;46.944;7.412;2023-09-07T08:27:21;33.40;99.90
16974;DHT22;8603;46.944;7.412;2023-09-07T08:29:46;33.40;99.90
16974;DHT22;8603;46.944;7.412;2023-09-07T08:32:17;33.60;99.90
16974;DHT22;8603;46.944;7.412;2023-09-07T08:34:43;33.50;99.90
16974;DHT22;8603;46.944;7.412;2023-09-07T08:37:08;33.30;99.90
16974;DHT22;8603;46.944;7.412;2023-09-07T08:39:34;33.30;99.90
16974;DHT22;8603;46.944;7.412;2023-09-07T08:42:00;33.40;99.90
16974;DHT22;8603;46.944;7.412;2023-09-07T08:44:37;33.60;99.90
16974;DHT22;8603;46.944;7.412;2023-09-07T08:47:04;33.70;99.90
16974;DHT22;8603;46.944;7.412;2023-09-07T08:49:30;33.70;99.90
16974;DHT22;8603;46.944;7.412;2023-09-07T08:52:01;33.60;99.90
16974;DHT22;8603;46.944;7.412;2023-09-07T08:54:28;33.50;99.90
16974;DHT22;8603;46.944;7.412;2023-09-07T08:56:56;33.40;99.90
16974;DHT22;8603;46.944;7.412;2023-09-07T08:59:33;33.40;99.90
16974;DHT22;8603;46.944;7.412;2023-09-07T09:02:02;33.40;99.90
16974;DHT22;8603;46.944;7.412;2023-09-07T09:04:30;33.30;99.90
16974;DHT22;8603;46.944;7.412;2023-09-07T09:06:56;33.30;99.90
16974;DHT22;8603;46.944;7.412;2023-09-07T09:09:23;33.30;99.90
16974;DHT22;8603;46.944;7.412;2023-09-07T09:11:50;33.30;99.90
16974;DHT22;8603;46.944;7.412;2023-09-07T09:14:19;33.20;99.90
16974;DHT22;8603;46.944;7.412;2023-09-07T09:16:49;33.20;99.90
16974;DHT22;8603;46.944;7.412;2023-09-07T09:19:16;33.20;99.90
16974;DHT22;8603;46.944;7.412;2023-09-07T09:21:41;33.10;99.90
16974;DHT22;8603;46.944;7.412;2023-09-07T09:24:12;33.20;99.90
16974;DHT22;8603;46.944;7.412;2023-09-07T09:26:38;33.20;99.90
16974;DHT22;8603;46.944;7.412;2023-09-07T09:29:03;33.10;99.90
16974;DHT22;8603;46.944;7.412;2023-09-07T09:31:30;33.10;99.90
16974;DHT22;8603;46.944;7.412;2023-09-07T09:33:56;33.10;99.90
16974;DHT22;8603;46.944;7.412;2023-09-07T09:36:22;33.10;99.90
16974;DHT22;8603;46.944;7.412;2023-09-07T09:38:49;33.10;99.90
16974;DHT22;8603;46.944;7.412;2023-09-07T09:41:17;33.00;99.90
16974;DHT22;8603;46.944;7.412;2023-09-07T09:43:43;32.90;99.90
16974;DHT22;8603;46.944;7.412;2023-09-07T09:46:10;32.80;99.90
16974;DHT22;8603;46.944;7.412;2023-09-07T09:48:37;32.60;99.90
16974;DHT22;8603;46.944;7.412;2023-09-07T09:51:04;32.20;99.90
16974;DHT22;8603;46.944;7.412;2023-09-07T09:53:29;31.90;99.90
16974;DHT22;8603;46.944;7.412;2023-09-07T09:55:56;31.60;99.90
16974;DHT22;8603;46.944;7.412;2023-09-07T09:58:31;31.40;99.90
16974;DHT22;8603;46.944;7.412;2023-09-07T10:01:00;31.40;99.90
16974;DHT22;8603;46.944;7.412;2023-09-07T10:03:33;31.10;99.90
16974;DHT22;8603;46.944;7.412;2023-09-07T10:06:11;31.00;99.90
16974;DHT22;8603;46.944;7.412;2023-09-07T10:08:37;30.90;99.90
16974;DHT22;8603;46.944;7.412;2023-09-07T10:11:09;30.80;99.90
16974;DHT22;8603;46.944;7.412;2023-09-07T10:13:35;30.60;99.90
16974;DHT22;8603;46.944;7.412;2023-09-07T10:16:05;30.50;99.90
16974;DHT22;8603;46.944;7.412;2023-09-07T10:18:42;30.30;99.90
16974;DHT22;8603;46.944;7.412;2023-09-07T10:21:10;30.20;99.90
16974;DHT22;8603;46.944;7.412;2023-09-07T10:26:09;30.20;99.90
16974;DHT22;8603;46.944;7.412;2023-09-07T10:28:35;30.20;99.90
16974;DHT22;8603;46.944;7.412;2023-09-07T10:31:24;30.10;99.90
16974;DHT22;8603;46.944;7.412;2023-09-07T10:33:56;30.00;99.90
16974;DHT22;8603;46.944;7.412;2023-09-07T10:36:26;29.90;99.90
16974;DHT22;8603;46.944;7.412;2023-09-07T10:38:54;30.00;99.90
16974;DHT22;8603;46.944;7.412;2023-09-07T10:41:21;30.00;99.90
16974;DHT22;8603;46.944;7.412;2023-09-07T10:43:49;30.00;99.90
16974;DHT22;8603;46.944;7.412;2023-09-07T10:46:18;30.00;99.90
16974;DHT22;8603;46.944;7.412;2023-09-07T10:48:53;30.00;99.90
16974;DHT22;8603;46.944;7.412;2023-09-07T10:51:19;29.90;99.90
16974;DHT22;8603;46.944;7.412;2023-09-07T10:53:45;29.90;99.90
16974;DHT22;8603;46.944;7.412;2023-09-07T10:56:11;29.90;99.90
16974;DHT22;8603;46.944;7.412;2023-09-07T10:58:38;29.90;99.90
16974;DHT22;8603;46.944;7.412;2023-09-07T11:01:09;30.00;99.90
16974;DHT22;8603;46.944;7.412;2023-09-07T11:03:36;30.00;99.90
16974;DHT22;8603;46.944;7.412;2023-09-07T11:06:10;30.00;99.90
16974;DHT22;8603;46.944;7.412;2023-09-07T11:08:37;30.10;99.90
16974;DHT22;8603;46.944;7.412;2023-09-07T11:11:05;30.10;99.90
16974;DHT22;8603;46.944;7.412;2023-09-07T11:13:32;30.10;99.90
16974;DHT22;8603;46.944;7.412;2023-09-07T11:15:59;30.00;99.90
16974;DHT22;8603;46.944;7.412;2023-09-07T11:18:25;30.00;99.90
16974;DHT22;8603;46.944;7.412;2023-09-07T11:20:52;30.10;99.90
16974;DHT22;8603;46.944;7.412;2023-09-07T11:23:20;30.20;99.90
16974;DHT22;8603;46.944;7.412;2023-09-07T11:25:47;30.30;99.90
16974;DHT22;8603;46.944;7.412;2023-09-07T11:28:15;30.30;99.90
16974;DHT22;8603;46.944;7.412;2023-09-07T11:30:51;30.30;99.90
16974;DHT22;8603;46.944;7.412;2023-09-07T11:33:18;30.30;99.90
16974;DHT22;8603;46.944;7.412;2023-09-07T11:35:44;30.30;99.90
16974;DHT22;8603;46.944;7.412;2023-09-07T11:38:13;30.20;99.90
16974;DHT22;8603;46.944;7.412;2023-09-07T11:40:38;30.20;99.90
16974;DHT22;8603;46.944;7.412;2023-09-07T11:43:04;30.20;99.90
16974;DHT22;8603;46.944;7.412;2023-09-07T11:45:30;30.20;99.90
16974;DHT22;8603;46.944;7.412;2023-09-07T11:47:57;30.10;99.90
16974;DHT22;8603;46.944;7.412;2023-09-07T11:50:23;30.10;99.90
16974;DHT22;8603;46.944;7.412;2023-09-07T11:52:50;30.20;99.90
16974;DHT22;8603;46.944;7.412;2023-09-07T11:55:16;30.20;99.90
16974;DHT22;8603;46.944;7.412;2023-09-07T11:57:41;30.30;99.90
16974;DHT22;8603;46.944;7.412;2023-09-07T12:00:10;30.30;99.90
16974;DHT22;8603;46.944;7.412;2023-09-07T12:02:37;30.40;99.90
16974;DHT22;8603;46.944;7.412;2023-09-07T12:05:03;30.40;99.90
16974;DHT22;8603;46.944;7.412;2023-09-07T12:07:29;30.50;99.90
16974;DHT22;8603;46.944;7.412;2023-09-07T12:09:56;30.40;99.90
16974;DHT22;8603;46.944;7.412;2023-09-07T12:12:23;30.50;99.90
16974;DHT22;8603;46.944;7.412;2023-09-07T12:14:49;30.30;99.90
16974;DHT22;8603;46.944;7.412;2023-09-07T12:17:14;30.40;99.90
16974;DHT22;8603;46.944;7.412;2023-09-07T12:19:40;30.50;99.90
16974;DHT22;8603;46.944;7.412;2023-09-07T12:22:11;30.50;99.90
16974;DHT22;8603;46.944;7.412;2023-09-07T12:24:37;30.50;99.90
16974;DHT22;8603;46.944;7.412;2023-09-07T12:27:15;30.50;99.90
16974;DHT22;8603;46.944;7.412;2023-09-07T12:29:43;30.40;99.90
16974;DHT22;8603;46.944;7.412;2023-09-07T12:32:34;30.40;99.90
16974;DHT22;8603;46.944;7.412;2023-09-07T12:35:00;30.30;99.90
16974;DHT22;8603;46.944;7.412;2023-09-07T12:37:30;30.40;99.90
16974;DHT22;8603;46.944;7.412;2023-09-07T12:39:56;30.40;99.90
16974;DHT22;8603;46.944;7.412;2023-09-07T12:42:22;30.50;99.90
16974;DHT22;8603;46.944;7.412;2023-09-07T12:44:47;30.50;99.90
16974;DHT22;8603;46.944;7.412;2023-09-07T12:47:13;30.60;99.90
16974;DHT22;8603;46.944;7.412;2023-09-07T12:49:38;30.70;99.90
16974;DHT22;8603;46.944;7.412;2023-09-07T12:52:13;30.70;99.90
16974;DHT22;8603;46.944;7.412;2023-09-07T12:54:40;30.80;99.90
16974;DHT22;8603;46.944;7.412;2023-09-07T12:57:05;30.80;99.90
16974;DHT22;8603;46.944;7.412;2023-09-07T12:59:33;30.80;99.90
16974;DHT22;8603;46.944;7.412;2023-09-07T13:02:02;30.80;99.90
16974;DHT22;8603;46.944;7.412;2023-09-07T13:07:35;30.70;99.90
16974;DHT22;8603;46.944;7.412;2023-09-07T13:13:32;30.50;99.90
16974;DHT22;8603;46.944;7.412;2023-09-07T13:15:58;30.40;99.90
16974;DHT22;8603;46.944;7.412;2023-09-07T13:18:26;30.30;99.90
16974;DHT22;8603;46.944;7.412;2023-09-07T13:21:12;30.10;99.90
16974;DHT22;8603;46.944;7.412;2023-09-07T13:23:38;30.00;99.90
16974;DHT22;8603;46.944;7.412;2023-09-07T13:26:30;30.10;99.90
16974;DHT22;8603;46.944;7.412;2023-09-07T13:29:43;30.20;99.90
16974;DHT22;8603;46.944;7.412;2023-09-07T13:32:08;30.30;99.90
16974;DHT22;8603;46.944;7.412;2023-09-07T13:34:40;30.40;99.90
16974;DHT22;8603;46.944;7.412;2023-09-07T13:37:30;30.50;99.90
16974;DHT22;8603;46.944;7.412;2023-09-07T13:39:56;30.40;99.90
16974;DHT22;8603;46.944;7.412;2023-09-07T13:42:25;30.30;99.90
16974;DHT22;8603;46.944;7.412;2023-09-07T13:44:52;30.40;99.90
16974;DHT22;8603;46.944;7.412;2023-09-07T13:47:18;30.50;99.90
16974;DHT22;8603;46.944;7.412;2023-09-07T13:49:43;30.60;99.90
16974;DHT22;8603;46.944;7.412;2023-09-07T13:52:09;30.50;99.90
16974;DHT22;8603;46.944;7.412;2023-09-07T13:54:34;30.50;99.90
16974;DHT22;8603;46.944;7.412;2023-09-07T13:57:00;30.50;99.90
16974;DHT22;8603;46.944;7.412;2023-09-07T13:59:52;30.40;99.90
16974;DHT22;8603;46.944;7.412;2023-09-07T14:02:20;30.40;99.90
16974;DHT22;8603;46.944;7.412;2023-09-07T14:04:50;30.30;99.90
16974;DHT22;8603;46.944;7.412;2023-09-07T14:07:19;30.30;99.90
16974;DHT22;8603;46.944;7.412;2023-09-07T14:09:51;30.30;99.90
16974;DHT22;8603;46.944;7.412;2023-09-07T14:12:23;30.30;99.90
16974;DHT22;8603;46.944;7.412;2023-09-07T14:15:14;30.30;99.90
16974;DHT22;8603;46.944;7.412;2023-09-07T14:17:40;30.50;99.90
16974;DHT22;8603;46.944;7.412;2023-09-07T14:20:06;30.50;99.90
16974;DHT22;8603;46.944;7.412;2023-09-07T14:22:33;30.70;99.90
16974;DHT22;8603;46.944;7.412;2023-09-07T14:25:04;30.70;99.90
16974;DHT22;8603;46.944;7.412;2023-09-07T14:27:33;30.60;99.90
16974;DHT22;8603;46.944;7.412;2023-09-07T14:30:00;30.60;99.90
16974;DHT22;8603;46.944;7.412;2023-09-07T14:32:26;30.50;99.90
16974;DHT22;8603;46.944;7.412;2023-09-07T14:35:01;30.60;99.90
16974;DHT22;8603;46.944;7.412;2023-09-07T14:37:26;30.60;99.90
16974;DHT22;8603;46.944;7.412;2023-09-07T14:40:01;30.60;99.90
16974;DHT22;8603;46.944;7.412;2023-09-07T14:42:29;30.60;99.90
16974;DHT22;8603;46.944;7.412;2023-09-07T14:44:55;30.60;99.90
16974;DHT22;8603;46.944;7.412;2023-09-07T14:47:22;30.50;99.90
16974;DHT22;8603;46.944;7.412;2023-09-07T14:49:52;30.50;99.90
16974;DHT22;8603;46.944;7.412;2023-09-07T14:52:18;30.40;99.90
16974;DHT22;8603;46.944;7.412;2023-09-07T14:54:53;30.50;99.90
16974;DHT22;8603;46.944;7.412;2023-09-07T14:57:18;30.40;99.90
16974;DHT22;8603;46.944;7.412;2023-09-07T14:59:47;30.40;99.90
16974;DHT22;8603;46.944;7.412;2023-09-07T15:02:24;30.30;99.90
16974;DHT22;8603;46.944;7.412;2023-09-07T15:05:47;30.20;99.90
16974;DHT22;8603;46.944;7.412;2023-09-07T15:08:16;30.20;99.90
16974;DHT22;8603;46.944;7.412;2023-09-07T15:10:41;30.30;99.90
16974;DHT22;8603;46.944;7.412;2023-09-07T15:13:07;30.30;99.90
16974;DHT22;8603;46.944;7.412;2023-09-07T15:15:42;30.30;99.90
16974;DHT22;8603;46.944;7.412;2023-09-07T15:18:08;30.30;99.90
16974;DHT22;8603;46.944;7.412;2023-09-07T15:20:34;30.20;99.90
16974;DHT22;8603;46.944;7.412;2023-09-07T15:23:00;30.10;99.90
16974;DHT22;8603;46.944;7.412;2023-09-07T15:25:26;30.10;99.90
16974;DHT22;8603;46.944;7.412;2023-09-07T15:27:53;30.10;99.90
16974;DHT22;8603;46.944;7.412;2023-09-07T15:30:38;30.10;99.90
16974;DHT22;8603;46.944;7.412;2023-09-07T15:33:07;30.20;99.90
16974;DHT22;8603;46.944;7.412;2023-09-07T15:35:33;30.20;99.90
16974;DHT22;8603;46.944;7.412;2023-09-07T15:38:07;30.00;99.90
16974;DHT22;8603;46.944;7.412;2023-09-07T15:40:36;30.00;99.90
16974;DHT22;8603;46.944;7.412;2023-09-07T15:43:04;29.90;99.90
16974;DHT22;8603;46.944;7.412;2023-09-07T15:45:37;30.00;99.90
16974;DHT22;8603;46.944;7.412;2023-09-07T15:48:04;30.00;99.90
16974;DHT22;8603;46.944;7.412;2023-09-07T15:50:29;30.00;99.90
16974;DHT22;8603;46.944;7.412;2023-09-07T15:53:03;30.00;99.90
16974;DHT22;8603;46.944;7.412;2023-09-07T15:55:31;30.00;99.90
16974;DHT22;8603;46.944;7.412;2023-09-07T15:57:57;30.00;99.90
16974;DHT22;8603;46.944;7.412;2023-09-07T16:00:31;30.00;99.90
16974;DHT22;8603;46.944;7.412;2023-09-07T16:03:03;30.00;99.90
16974;DHT22;8603;46.944;7.412;2023-09-07T16:05:29;29.90;99.90